< < Back
Terminal Aerodrome Forecast


Current Version              Previous Versions:   1  2  3  4  5  6  7  8  9  

Terminal Aerodrome Forecast

904
FTUS42 KCAE 230800 AAB
TAFAGS
TAF AMD
KAGS 230858Z 2309/2406 04005KT P6SM VCSH SCT035 OVC100
      TEMPO 2309/2313 BKN025
     FM231700 04010G15KT P6SM SCT015 OVC035
     FM240000 04007KT P6SM OVC050=

Latest METAR

371
SAUS70 KWBC 231600 RRC
MTRAGS
METAR KAGS 231553Z 08011KT 10SM FEW030 24/16 A3019 RMK AO2 SLP220
T02390156


USA.gov is the U.S. government's official web portal to all federal, state and local government web resources and services.